Aviation Digital Data Service (ADDS)

Output produced by METARs form (1129 UTC 18 June 2019)
found at http://www.aviationweather.gov/metar/data/
 
Forecast for: EBBE (BEAUVECHAIN (BAF, BE)
Text: TAF EBBE 180841Z 1810/1819 VRB02KT 9999 FEW040 SCT150 BKN240
Forecast period: 1000 to 1200 UTC 18 June 2019
Forecast type: FROM: standard forecast or significant change
Winds: variable direction winds at 2 MPH (2 knots; 1.0 m/s)
Visibility: 6 or more miles 10+ km)
Ceiling: 24000 feet AGL
Clouds: few clouds at 4000 feet AGL
scattered clouds at 15000 feet AGL
broken clouds at 24000 feet AGL
Weather: no significant weather forecast for this period
Text: TEMPO 1812/1819 8000 -SHRA SCT040TCU BKN100
Forecast period: 1200 to 1900 UTC 18 June 2019
Forecast type: TEMPORARY: The following changes expected for less than half the time period
Visibility: 5 miles (8 km)
Ceiling: 10000 feet AGL
Clouds: scattered clouds at 4000 feet AGL
broken clouds at 10000 feet AGL
Weather: -SHRA  (light rain showers)
Text: BECMG 1812/1814 18007KT
Forecast period: 1200 to 1900 UTC 18 June 2019
Forecast type: BECOMING: Conditions expected to become as follows by 1400 UTC 18 June 2019
Winds: from the S (180 degrees) at 8 MPH (7 knots; 3.6 m/s)
Visibility: 6 or more miles 10+ km)
Ceiling: 24000 feet AGL
Clouds: few clouds at 4000 feet AGL
scattered clouds at 15000 feet AGL
broken clouds at 24000 feet AGL
Weather: no significant weather forecast for this period